createdAt,value
2023-12-23T00:02:20.650Z,2.60
2023-12-23T00:04:47.166Z,3.20
2023-12-23T00:07:15.120Z,7.10
2023-12-23T00:09:41.627Z,3.10
2023-12-23T00:12:10.995Z,2.70
2023-12-23T00:14:37.942Z,3.00
2023-12-23T00:17:04.573Z,5.10
2023-12-23T00:19:31.182Z,2.60
2023-12-23T00:21:57.478Z,2.80
2023-12-23T00:24:24.899Z,1.90
2023-12-23T00:26:51.260Z,2.10
2023-12-23T00:29:17.658Z,1.70
2023-12-23T00:31:43.932Z,2.50
2023-12-23T00:34:10.146Z,1.90
2023-12-23T00:36:36.473Z,1.90
2023-12-23T00:39:04.539Z,2.90
2023-12-23T00:41:30.823Z,2.80
2023-12-23T00:43:57.345Z,1.40
2023-12-23T00:46:23.662Z,3.50
2023-12-23T00:48:50.209Z,3.10
2023-12-23T00:51:16.513Z,1.80
2023-12-23T00:53:43.625Z,1.80
2023-12-23T00:56:13.091Z,1.40
2023-12-23T00:58:39.321Z,3.40
2023-12-23T01:01:05.858Z,4.00
2023-12-23T01:03:32.269Z,1.30
2023-12-23T01:05:58.802Z,1.90
2023-12-23T01:08:26.270Z,1.80
2023-12-23T01:10:52.732Z,1.90
2023-12-23T01:13:20.203Z,3.80
2023-12-23T01:15:46.672Z,1.90
2023-12-23T01:18:13.191Z,2.00
2023-12-23T01:20:40.590Z,1.50
2023-12-23T01:23:06.959Z,0.60
2023-12-23T01:25:33.273Z,4.30
2023-12-23T01:28:04.772Z,2.10
2023-12-23T01:30:31.467Z,2.30
2023-12-23T01:32:57.977Z,4.00
2023-12-23T01:35:24.425Z,1.50
2023-12-23T01:37:51.052Z,1.70
2023-12-23T01:40:17.521Z,1.70
2023-12-23T01:42:46.169Z,2.20
2023-12-23T01:45:12.608Z,0.70
2023-12-23T01:47:39.221Z,2.30
2023-12-23T01:50:05.515Z,1.00
2023-12-23T01:52:31.883Z,1.80
2023-12-23T01:54:58.220Z,0.60
2023-12-23T01:57:24.632Z,2.70
2023-12-23T01:59:50.810Z,1.60
2023-12-23T02:02:17.348Z,1.90
2023-12-23T02:04:43.724Z,2.20
2023-12-23T02:07:09.968Z,0.50
2023-12-23T02:09:36.495Z,2.70
2023-12-23T02:12:02.817Z,1.00
2023-12-23T02:14:29.242Z,1.70
2023-12-23T02:16:55.735Z,2.30
2023-12-23T02:19:21.984Z,1.90
2023-12-23T02:21:48.151Z,1.00
2023-12-23T02:24:14.687Z,1.90
2023-12-23T02:26:40.989Z,1.90
2023-12-23T02:29:07.404Z,1.00
2023-12-23T02:31:34.673Z,1.50
2023-12-23T02:34:01.081Z,2.10
2023-12-23T02:36:27.675Z,2.80
2023-12-23T02:38:54.096Z,1.30
2023-12-23T02:41:22.023Z,4.10
2023-12-23T02:43:48.252Z,1.50
2023-12-23T02:46:14.714Z,2.40
2023-12-23T02:48:41.080Z,1.00
2023-12-23T02:51:07.499Z,1.50
2023-12-23T02:53:33.899Z,1.00
2023-12-23T02:56:00.325Z,2.00
2023-12-23T02:58:26.665Z,1.70
2023-12-23T03:00:53.048Z,1.80
2023-12-23T03:03:19.560Z,0.70
2023-12-23T03:05:46.091Z,1.70
2023-12-23T03:08:12.487Z,1.10
2023-12-23T03:10:38.807Z,1.00
2023-12-23T03:13:05.135Z,1.20
2023-12-23T03:15:31.581Z,0.80
2023-12-23T03:17:58.017Z,2.00
2023-12-23T03:20:27.040Z,1.20
2023-12-23T03:22:53.735Z,2.70
2023-12-23T03:25:20.152Z,2.50
2023-12-23T03:27:46.407Z,0.90
2023-12-23T03:30:13.020Z,0.40
2023-12-23T03:32:40.600Z,1.90
2023-12-23T03:35:07.034Z,2.50
2023-12-23T03:37:33.343Z,2.00
2023-12-23T03:39:59.701Z,2.30
2023-12-23T03:42:25.958Z,1.80
2023-12-23T03:44:52.414Z,1.50
2023-12-23T03:47:18.840Z,3.00
2023-12-23T03:49:45.172Z,1.20
2023-12-23T03:52:11.581Z,1.10
2023-12-23T03:54:37.877Z,1.10
2023-12-23T03:57:04.377Z,1.90
2023-12-23T03:59:30.956Z,1.70
2023-12-23T04:01:58.254Z,2.50
2023-12-23T04:04:24.701Z,2.60
2023-12-23T04:06:51.092Z,0.70
2023-12-23T04:09:17.388Z,2.00
2023-12-23T04:11:43.579Z,2.50
2023-12-23T04:14:09.968Z,1.40
2023-12-23T04:16:36.352Z,0.60
2023-12-23T04:19:03.103Z,1.60
2023-12-23T04:21:29.716Z,4.90
2023-12-23T04:23:56.093Z,0.90
2023-12-23T04:26:22.531Z,1.80
2023-12-23T04:28:48.916Z,1.20
2023-12-23T04:31:15.354Z,0.70
2023-12-23T04:33:41.986Z,1.30
2023-12-23T04:36:08.431Z,0.70
2023-12-23T04:38:35.690Z,2.30
2023-12-23T04:41:02.115Z,1.30
2023-12-23T04:43:30.853Z,0.50
2023-12-23T04:45:58.140Z,0.40
2023-12-23T04:48:25.888Z,0.80
2023-12-23T04:50:52.200Z,2.10
2023-12-23T04:53:18.483Z,2.00
2023-12-23T04:55:44.997Z,2.80
2023-12-23T04:58:11.326Z,2.20
2023-12-23T05:00:37.579Z,1.80
2023-12-23T05:03:04.934Z,0.40
2023-12-23T05:05:31.279Z,0.90
2023-12-23T05:07:57.643Z,1.10
2023-12-23T05:10:24.068Z,2.60
2023-12-23T05:12:50.592Z,0.40
2023-12-23T05:15:17.072Z,0.50
2023-12-23T05:17:43.815Z,2.00
2023-12-23T05:20:10.900Z,1.90
2023-12-23T05:22:37.128Z,1.80
2023-12-23T05:25:04.535Z,1.30
2023-12-23T05:27:30.905Z,1.70
2023-12-23T05:29:58.032Z,1.10
2023-12-23T05:32:25.453Z,2.40
2023-12-23T05:34:52.507Z,5.20
2023-12-23T05:37:18.761Z,2.80
2023-12-23T05:39:48.527Z,3.00
2023-12-23T05:42:15.291Z,2.40
2023-12-23T05:44:41.777Z,2.30
2023-12-23T05:47:09.035Z,3.00
2023-12-23T05:49:35.449Z,2.60
2023-12-23T05:52:01.684Z,2.40
2023-12-23T05:54:28.064Z,1.40
2023-12-23T05:56:54.672Z,3.70
2023-12-23T05:59:21.074Z,1.80
2023-12-23T06:01:47.418Z,0.60
2023-12-23T06:04:13.894Z,2.50
2023-12-23T06:06:40.164Z,5.10
2023-12-23T06:09:07.138Z,1.90
2023-12-23T06:11:33.553Z,3.70
2023-12-23T06:13:59.908Z,2.90
2023-12-23T06:16:26.348Z,0.90
2023-12-23T06:18:52.657Z,2.30
2023-12-23T06:21:18.984Z,4.40
2023-12-23T06:23:45.357Z,1.90
2023-12-23T06:26:11.795Z,2.60
2023-12-23T06:28:38.395Z,2.50
2023-12-23T06:31:04.677Z,1.50
2023-12-23T06:33:31.055Z,1.10
2023-12-23T06:35:57.590Z,2.70
2023-12-23T06:38:23.930Z,3.40
2023-12-23T06:40:50.507Z,3.10
2023-12-23T06:43:44.348Z,4.60
2023-12-23T06:46:03.423Z,3.40
2023-12-23T06:48:34.240Z,8.00
2023-12-23T06:51:01.308Z,1.70
2023-12-23T06:53:27.618Z,3.10
2023-12-23T06:55:53.844Z,3.80
2023-12-23T06:58:21.063Z,3.00
2023-12-23T07:00:47.535Z,1.50
2023-12-23T07:03:13.960Z,3.80
2023-12-23T07:05:40.705Z,3.30
2023-12-23T07:08:07.103Z,4.20
2023-12-23T07:10:33.443Z,4.10
2023-12-23T07:12:59.782Z,4.70
2023-12-23T07:15:26.067Z,6.20
2023-12-23T07:17:52.434Z,4.90
2023-12-23T07:20:18.976Z,9.70
2023-12-23T07:22:45.626Z,6.20
2023-12-23T07:25:11.820Z,5.30
2023-12-23T07:27:38.364Z,5.90
2023-12-23T07:30:05.291Z,7.20
2023-12-23T07:32:31.732Z,10.10
2023-12-23T07:34:58.102Z,14.50
2023-12-23T07:37:25.010Z,4.30
2023-12-23T07:39:51.214Z,8.40
2023-12-23T07:42:17.589Z,8.20
2023-12-23T07:44:43.920Z,9.40
2023-12-23T07:47:10.862Z,7.40
2023-12-23T07:49:39.126Z,26.70
2023-12-23T07:52:06.263Z,5.80
2023-12-23T07:54:32.667Z,9.70
2023-12-23T07:56:58.850Z,19.70
2023-12-23T07:59:25.848Z,8.30
2023-12-23T08:01:52.241Z,6.80
2023-12-23T08:04:18.678Z,6.50
2023-12-23T08:06:45.229Z,6.10
2023-12-23T08:09:11.545Z,5.10
2023-12-23T08:11:37.799Z,4.00
2023-12-23T08:14:04.270Z,10.00
2023-12-23T08:16:30.719Z,8.00
2023-12-23T08:18:57.149Z,8.80
2023-12-23T08:21:23.593Z,16.40
2023-12-23T08:23:50.088Z,5.30
2023-12-23T08:26:16.301Z,10.80
2023-12-23T08:28:43.923Z,6.40
2023-12-23T08:31:11.889Z,4.70
2023-12-23T08:33:38.269Z,9.60
2023-12-23T08:36:04.674Z,7.50
2023-12-23T08:38:32.090Z,5.10
2023-12-23T08:40:58.387Z,10.50
2023-12-23T08:43:24.642Z,3.50
2023-12-23T08:45:50.969Z,1.90
2023-12-23T08:48:17.394Z,5.00
2023-12-23T08:50:43.858Z,2.60
2023-12-23T08:53:10.209Z,2.70
2023-12-23T08:55:36.534Z,3.30
2023-12-23T08:58:03.078Z,4.50
2023-12-23T09:00:29.463Z,2.20
2023-12-23T09:02:55.822Z,3.30
2023-12-23T09:05:22.744Z,3.50
2023-12-23T09:07:49.372Z,5.90
2023-12-23T09:10:15.956Z,5.30
2023-12-23T09:12:42.603Z,6.00
2023-12-23T09:15:09.048Z,4.10
2023-12-23T09:17:35.555Z,2.80
2023-12-23T09:20:01.956Z,1.80
2023-12-23T09:22:28.372Z,4.60
2023-12-23T09:24:54.643Z,4.70
2023-12-23T09:27:20.878Z,3.40
2023-12-23T09:29:47.442Z,4.80
2023-12-23T09:32:14.006Z,7.10
2023-12-23T09:34:40.594Z,5.30
2023-12-23T09:37:06.965Z,6.40
2023-12-23T09:39:34.824Z,4.60
2023-12-23T09:42:01.076Z,3.70
2023-12-23T09:44:27.476Z,2.50
2023-12-23T09:46:53.817Z,4.10
2023-12-23T09:49:20.494Z,5.10
2023-12-23T09:51:47.031Z,3.80
2023-12-23T09:54:14.291Z,8.40
2023-12-23T09:56:40.698Z,4.20
2023-12-23T09:59:06.970Z,3.40
2023-12-23T10:01:33.258Z,2.70
2023-12-23T10:03:59.517Z,4.20
2023-12-23T10:06:26.101Z,1.70
2023-12-23T10:08:52.662Z,3.10
2023-12-23T10:11:20.300Z,4.60
2023-12-23T10:13:46.672Z,1.70
2023-12-23T10:16:13.079Z,5.30
2023-12-23T10:18:41.348Z,5.60
2023-12-23T10:21:07.672Z,2.20
2023-12-23T10:23:33.988Z,3.60
2023-12-23T10:26:03.400Z,3.70
2023-12-23T10:28:30.419Z,2.30
2023-12-23T10:30:56.724Z,3.10
2023-12-23T10:33:23.224Z,4.50
2023-12-23T10:35:49.788Z,5.60
2023-12-23T10:38:20.977Z,6.00
2023-12-23T10:40:47.507Z,4.20
2023-12-23T10:43:13.834Z,5.10
2023-12-23T10:45:40.084Z,4.00
2023-12-23T10:48:09.777Z,4.70
2023-12-23T10:50:36.226Z,4.80
2023-12-23T10:53:02.763Z,1.80
2023-12-23T10:55:29.112Z,4.40
2023-12-23T10:57:55.581Z,3.80
2023-12-23T11:00:21.969Z,5.10
2023-12-23T11:02:48.575Z,4.40
2023-12-23T11:05:15.065Z,3.90
2023-12-23T11:07:41.553Z,2.00
2023-12-23T11:10:08.042Z,4.10
2023-12-23T11:12:34.291Z,3.00
2023-12-23T11:15:00.871Z,4.20
2023-12-23T11:17:27.776Z,6.20
2023-12-23T11:19:54.268Z,4.60
2023-12-23T11:22:22.349Z,3.00
2023-12-23T11:24:51.208Z,3.90
2023-12-23T11:27:17.516Z,4.60
2023-12-23T11:29:43.781Z,2.40
2023-12-23T11:32:10.921Z,4.70
2023-12-23T11:34:37.733Z,3.70
2023-12-23T11:37:04.245Z,5.90
2023-12-23T11:39:30.512Z,3.90
2023-12-23T11:41:57.078Z,6.20
2023-12-23T11:44:23.697Z,5.80
2023-12-23T11:46:50.570Z,7.30
2023-12-23T11:49:16.976Z,6.00
2023-12-23T11:51:43.268Z,3.70
2023-12-23T11:54:09.841Z,4.20
2023-12-23T11:56:36.382Z,7.90
2023-12-23T11:59:02.999Z,3.40
2023-12-23T12:01:29.466Z,8.50
2023-12-23T12:03:56.059Z,4.50
2023-12-23T12:06:22.999Z,2.90
2023-12-23T12:08:49.340Z,2.80
2023-12-23T12:11:15.719Z,2.50
2023-12-23T12:13:43.375Z,4.00
2023-12-23T12:16:09.613Z,4.90
2023-12-23T12:18:36.283Z,5.30
2023-12-23T12:21:02.988Z,4.50
2023-12-23T12:23:29.534Z,3.40
2023-12-23T12:25:57.636Z,3.80
2023-12-23T12:28:24.080Z,4.00
2023-12-23T12:30:50.381Z,4.10
2023-12-23T12:33:16.944Z,1.90
2023-12-23T12:35:43.927Z,3.90
2023-12-23T12:38:16.894Z,2.40
2023-12-23T12:40:49.314Z,3.50
2023-12-23T12:43:15.776Z,5.90
2023-12-23T12:45:43.088Z,4.70
2023-12-23T12:48:10.728Z,4.30
2023-12-23T12:50:37.115Z,4.30
2023-12-23T12:53:03.763Z,5.60
2023-12-23T12:55:30.116Z,3.70
2023-12-23T12:57:56.849Z,7.90
2023-12-23T13:00:24.024Z,4.90
2023-12-23T13:02:50.573Z,5.60
2023-12-23T13:05:17.143Z,5.90
2023-12-23T13:07:43.920Z,6.20
2023-12-23T13:10:10.229Z,5.90
2023-12-23T13:12:37.091Z,3.70
2023-12-23T13:15:03.776Z,4.80
2023-12-23T13:17:30.082Z,6.30
2023-12-23T13:19:56.802Z,5.70
2023-12-23T13:22:23.305Z,6.80
2023-12-23T13:24:49.907Z,6.00
2023-12-23T13:27:18.092Z,4.50
2023-12-23T13:29:44.421Z,6.60
2023-12-23T13:32:10.822Z,8.10
2023-12-23T13:34:37.250Z,5.30
2023-12-23T13:37:03.517Z,4.40
2023-12-23T13:39:29.916Z,7.00
2023-12-23T13:41:56.135Z,8.90
2023-12-23T13:44:22.744Z,7.10
2023-12-23T13:46:49.351Z,10.20
2023-12-23T13:49:15.837Z,9.10
2023-12-23T13:51:42.396Z,10.70
2023-12-23T13:54:08.764Z,11.80
2023-12-23T13:56:35.242Z,10.30
2023-12-23T13:59:01.592Z,9.90
2023-12-23T14:01:27.864Z,16.20
2023-12-23T14:03:54.222Z,13.40
2023-12-23T14:06:21.126Z,22.30
2023-12-23T14:08:47.630Z,19.40
2023-12-23T14:11:14.014Z,23.90
2023-12-23T14:13:40.498Z,24.90
2023-12-23T14:16:07.138Z,23.30
2023-12-23T14:18:33.658Z,18.80
2023-12-23T14:20:59.971Z,21.30
2023-12-23T14:23:26.287Z,23.70
2023-12-23T14:25:52.737Z,26.40
2023-12-23T14:28:19.155Z,20.40
2023-12-23T14:30:45.696Z,26.20
2023-12-23T14:33:12.460Z,16.60
2023-12-23T14:35:38.955Z,19.80
2023-12-23T14:38:05.619Z,21.20
2023-12-23T14:40:32.216Z,14.90
2023-12-23T14:42:58.483Z,13.80
2023-12-23T14:45:25.926Z,15.10
2023-12-23T14:47:52.408Z,12.00
2023-12-23T14:50:20.488Z,32.00
2023-12-23T14:52:46.961Z,37.20
2023-12-23T14:55:13.203Z,23.40
2023-12-23T14:57:39.597Z,15.80
2023-12-23T15:00:06.160Z,18.80
2023-12-23T15:02:32.498Z,13.50
2023-12-23T15:04:58.865Z,17.10
2023-12-23T15:07:29.002Z,16.40
2023-12-23T15:09:55.614Z,14.50
2023-12-23T15:12:21.889Z,16.40
2023-12-23T15:14:50.940Z,13.20
2023-12-23T15:17:17.311Z,11.70
2023-12-23T15:19:43.935Z,11.40
2023-12-23T15:22:11.139Z,8.70
2023-12-23T15:24:37.663Z,8.60
2023-12-23T15:27:03.915Z,10.00
2023-12-23T15:29:30.282Z,10.70
2023-12-23T15:31:56.563Z,10.90
2023-12-23T15:34:23.046Z,24.00
2023-12-23T15:36:49.836Z,32.20
2023-12-23T15:39:16.056Z,17.30
2023-12-23T15:41:42.366Z,39.70
2023-12-23T15:44:08.653Z,18.60
2023-12-23T15:46:35.170Z,24.50
2023-12-23T15:49:01.502Z,34.60
2023-12-23T15:51:27.898Z,24.50
2023-12-23T15:53:54.544Z,9.40
2023-12-23T15:56:20.887Z,9.50
2023-12-23T15:58:47.465Z,9.80
2023-12-23T16:01:13.873Z,13.90
2023-12-23T16:03:40.298Z,12.10
2023-12-23T16:06:07.151Z,10.60
2023-12-23T16:08:33.704Z,11.20
2023-12-23T16:11:00.170Z,14.50
2023-12-23T16:13:26.612Z,13.40
2023-12-23T16:15:52.894Z,15.80
2023-12-23T16:18:19.392Z,17.90
2023-12-23T16:20:45.778Z,16.00
2023-12-23T16:23:12.496Z,16.50
2023-12-23T16:25:39.912Z,14.90
2023-12-23T16:28:06.425Z,10.30
2023-12-23T16:30:32.853Z,14.00
2023-12-23T16:32:59.994Z,19.10
2023-12-23T16:35:26.614Z,14.60
2023-12-23T16:37:53.501Z,16.30
2023-12-23T16:40:19.977Z,12.40
2023-12-23T16:42:46.319Z,10.10
2023-12-23T16:45:16.350Z,10.40
2023-12-23T16:47:43.386Z,6.60
2023-12-23T16:50:09.697Z,6.30
2023-12-23T16:52:36.075Z,7.90
2023-12-23T16:55:02.713Z,7.90
2023-12-23T16:57:28.944Z,10.50
2023-12-23T16:59:55.211Z,5.40
2023-12-23T17:02:23.374Z,6.50
2023-12-23T17:04:50.307Z,6.20
2023-12-23T17:07:16.856Z,10.60
2023-12-23T17:09:43.204Z,9.10
2023-12-23T17:12:09.630Z,9.90
2023-12-23T17:14:35.958Z,8.50
2023-12-23T17:17:04.479Z,8.60
2023-12-23T17:19:31.637Z,12.50
2023-12-23T17:21:58.088Z,9.30
2023-12-23T17:24:24.548Z,5.80
2023-12-23T17:26:51.424Z,9.20
2023-12-23T17:29:17.857Z,9.20
2023-12-23T17:31:44.102Z,9.90
2023-12-23T17:34:11.602Z,15.10
2023-12-23T17:36:42.643Z,11.10
2023-12-23T17:39:08.878Z,11.10
2023-12-23T17:41:35.271Z,9.90
2023-12-23T17:44:01.648Z,11.10
2023-12-23T17:46:28.030Z,9.20
2023-12-23T17:48:54.897Z,5.10
2023-12-23T17:51:21.244Z,5.60
2023-12-23T17:53:47.884Z,8.00
2023-12-23T17:56:14.226Z,8.20
2023-12-23T17:58:42.886Z,7.90
2023-12-23T18:01:09.547Z,8.10
2023-12-23T18:03:36.063Z,6.80
2023-12-23T18:06:06.154Z,11.80
2023-12-23T18:08:32.953Z,9.50
2023-12-23T18:10:59.389Z,8.70
2023-12-23T18:13:27.456Z,5.80
2023-12-23T18:15:53.676Z,9.10
2023-12-23T18:18:20.086Z,6.70
2023-12-23T18:20:46.787Z,8.10
2023-12-23T18:23:13.747Z,4.70
2023-12-23T18:25:40.124Z,4.80
2023-12-23T18:28:06.483Z,6.10
2023-12-23T18:30:32.819Z,4.80
2023-12-23T18:32:59.744Z,3.70
2023-12-23T18:35:26.374Z,5.20
2023-12-23T18:37:52.983Z,4.80
2023-12-23T18:40:19.450Z,5.50
2023-12-23T18:42:45.742Z,3.60
2023-12-23T18:45:12.798Z,4.30
2023-12-23T18:47:39.325Z,4.50
2023-12-23T18:50:06.229Z,4.50
2023-12-23T18:52:32.452Z,5.40
2023-12-23T18:54:58.941Z,8.80
2023-12-23T18:57:25.236Z,9.80
2023-12-23T18:59:51.867Z,10.40
2023-12-23T19:02:18.086Z,9.10
2023-12-23T19:04:45.395Z,7.50
2023-12-23T19:07:11.641Z,7.00
2023-12-23T19:09:38.073Z,8.10
2023-12-23T19:12:04.529Z,8.70
2023-12-23T19:14:30.927Z,6.60
2023-12-23T19:16:57.326Z,8.30
2023-12-23T19:19:23.881Z,9.00
2023-12-23T19:21:50.242Z,10.10
2023-12-23T19:24:16.615Z,10.10
2023-12-23T19:26:43.010Z,8.90
2023-12-23T19:29:09.322Z,10.90
2023-12-23T19:31:35.974Z,10.40
2023-12-23T19:34:04.224Z,8.60
2023-12-23T19:36:32.663Z,9.60
2023-12-23T19:38:59.831Z,9.90
2023-12-23T19:41:26.553Z,8.00
2023-12-23T19:43:52.802Z,6.30
2023-12-23T19:46:19.206Z,11.00
2023-12-23T19:48:45.801Z,17.10
2023-12-23T19:51:14.588Z,16.40
2023-12-23T19:53:40.900Z,10.60
2023-12-23T19:56:07.370Z,13.20
2023-12-23T19:58:34.170Z,4.80
2023-12-23T20:01:00.394Z,7.20
2023-12-23T20:03:26.873Z,6.30
2023-12-23T20:05:54.975Z,7.30
2023-12-23T20:08:21.451Z,3.60
2023-12-23T20:10:47.885Z,5.90
2023-12-23T20:13:14.181Z,8.20
2023-12-23T20:15:43.893Z,7.10
2023-12-23T20:18:10.576Z,6.10
2023-12-23T20:20:37.266Z,4.80
2023-12-23T20:23:03.701Z,6.60
2023-12-23T20:25:30.898Z,7.40
2023-12-23T20:27:57.373Z,7.90
2023-12-23T20:30:23.734Z,8.50
2023-12-23T20:32:50.469Z,8.20
2023-12-23T20:35:17.186Z,7.50
2023-12-23T20:37:43.475Z,9.50
2023-12-23T20:40:09.815Z,8.40
2023-12-23T20:42:36.084Z,7.60
2023-12-23T20:45:02.815Z,7.80
2023-12-23T20:47:29.317Z,6.70
2023-12-23T20:49:55.734Z,9.10
2023-12-23T20:52:22.333Z,6.40
2023-12-23T20:54:48.820Z,6.40
2023-12-23T20:57:15.109Z,8.40
2023-12-23T20:59:44.878Z,6.40
2023-12-23T21:02:11.182Z,5.80
2023-12-23T21:04:37.834Z,6.80
2023-12-23T21:07:08.452Z,8.90
2023-12-23T21:09:35.180Z,6.80
2023-12-23T21:12:01.407Z,5.00
2023-12-23T21:14:29.901Z,8.00
2023-12-23T21:16:56.271Z,6.30
2023-12-23T21:19:22.884Z,5.50
2023-12-23T21:21:49.356Z,5.90
2023-12-23T21:24:15.727Z,6.70
2023-12-23T21:26:42.021Z,6.10
2023-12-23T21:29:08.459Z,5.10
2023-12-23T21:31:34.854Z,5.70
2023-12-23T21:34:01.401Z,5.00
2023-12-23T21:36:27.789Z,5.90
2023-12-23T21:38:54.142Z,5.00
2023-12-23T21:41:20.457Z,4.90
2023-12-23T21:43:46.971Z,6.60
2023-12-23T21:46:13.465Z,6.50
2023-12-23T21:48:39.946Z,5.10
2023-12-23T21:51:06.491Z,5.30
2023-12-23T21:53:33.028Z,8.20
2023-12-23T21:55:59.397Z,4.20
2023-12-23T21:58:25.780Z,7.30
2023-12-23T22:00:52.047Z,5.00
2023-12-23T22:03:18.406Z,6.40
2023-12-23T22:05:45.258Z,6.20
2023-12-23T22:08:11.589Z,6.80
2023-12-23T22:10:38.074Z,5.20
2023-12-23T22:13:04.768Z,5.60
2023-12-23T22:15:31.009Z,6.70
2023-12-23T22:17:57.416Z,5.40
2023-12-23T22:20:24.372Z,4.50
2023-12-23T22:22:51.069Z,3.40
2023-12-23T22:25:18.571Z,6.20
2023-12-23T22:27:44.946Z,6.80
2023-12-23T22:30:11.203Z,6.00
2023-12-23T22:32:37.597Z,4.80
2023-12-23T22:35:04.090Z,3.00
2023-12-23T22:37:30.439Z,4.70
2023-12-23T22:39:58.201Z,3.40
2023-12-23T22:42:24.583Z,5.20
2023-12-23T22:44:51.265Z,5.60
2023-12-23T22:47:17.636Z,2.40
2023-12-23T22:49:46.389Z,5.10
2023-12-23T22:52:12.960Z,4.50
2023-12-23T22:54:40.495Z,5.30
2023-12-23T22:57:07.119Z,4.30
2023-12-23T22:59:33.627Z,5.50
2023-12-23T23:02:01.110Z,5.70
2023-12-23T23:04:27.538Z,3.30
2023-12-23T23:06:53.821Z,6.30
2023-12-23T23:09:20.649Z,7.80
2023-12-23T23:11:47.069Z,4.60
2023-12-23T23:14:13.508Z,4.50
2023-12-23T23:16:40.046Z,7.00
2023-12-23T23:19:06.577Z,5.30
2023-12-23T23:21:33.301Z,4.90
2023-12-23T23:23:59.532Z,6.20
2023-12-23T23:26:25.981Z,4.80
2023-12-23T23:28:52.356Z,6.10
2023-12-23T23:31:18.573Z,7.20
2023-12-23T23:33:45.073Z,6.30
2023-12-23T23:36:11.348Z,5.20
2023-12-23T23:38:37.549Z,9.60
2023-12-23T23:41:05.761Z,6.40
2023-12-23T23:43:32.353Z,5.60
2023-12-23T23:45:58.569Z,8.50
2023-12-23T23:48:25.241Z,6.80
2023-12-23T23:50:51.834Z,5.90
2023-12-23T23:53:21.134Z,6.40
2023-12-23T23:55:47.558Z,8.00
2023-12-23T23:58:13.998Z,5.30
